Latest Weather Observations for Coonabarabran Airport

IDN60801

Issued at 7:35 pm EST Sunday 21 September 2014 (issued every 30 minutes, with the page automatically refreshed every 10 minutes)

About weather observations | Map of weather stations | Latest weather observations for NSW | Other Formats
Station Details ID: 064017 Name: COONABARABRAN AIRPORT AWS Lat: -31.33 Lon: 149.27 Height: 645.0 m
Data from the previous 72 hours. | See also: Recent months for locations in New South Wales
Date/Time
EST
Temp
°C
App
Temp
°C
Dew
Point
Rel
Hum
%
Delta-T
°C
Wind Press
QNH
hPa
Press
MSL
hPa
Rain
since 9 am
mm
Dir
 
Spd
km/h
Gust
km/h
Spd
kts
Gust
kts
21/07:30pm 13.1 9.9 2.9 50 4.7 ESE 9 13 5 7 1027.5 1026.3 0.0
21/07:00pm 13.3 9.2 2.5 48 4.9 E 13 17 7 9 1027.5 1026.3 0.0
21/06:30pm 13.6 9.5 2.5 47 5.1 ESE 13 15 7 8 1026.9 1025.8 0.0
21/06:00pm 14.3 9.4 2.2 44 5.5 SE 17 20 9 11 1026.5 1025.3 0.0
21/05:30pm 14.9 10.0 1.8 41 6.0 SSE 17 24 9 13 1026.2 1025.0 0.0
21/05:00pm 15.7 10.4 1.8 39 6.3 SSE 19 26 10 14 1025.8 1024.6 0.0
21/04:30pm 16.7 11.4 2.0 37 6.8 SSE 19 26 10 14 1025.3 1024.1 0.0
21/04:00pm 17.7 11.9 -0.1 30 7.9 SSE 20 33 11 18 1025.2 1024.0 0.0
21/03:30pm 17.9 11.6 -1.3 27 8.4 SSE 22 30 12 16 1025.6 1024.5 0.0
21/03:00pm 19.0 14.3 0.6 29 8.4 ESE 15 28 8 15 1025.6 1024.5 0.0
21/02:30pm 18.4 12.7 2.7 35 7.5 ESE 22 30 12 16 1025.2 1024.0 0.0
21/02:00pm 19.0 13.4 3.2 35 7.6 S 22 28 12 15 1025.5 1024.4 0.0
21/01:30pm 18.1 13.6 4.3 40 6.7 SSE 17 26 9 14 1026.4 1025.2 0.0
21/01:00pm 17.7 14.3 3.9 40 6.7 SE 11 15 6 8 1027.1 1026.0 0.0
21/12:30pm 17.4 14.0 4.0 41 6.5 ESE 11 24 6 13 1027.6 1026.4 0.0
21/12:00pm 16.7 12.9 4.1 43 6.1 E 13 22 7 12 1028.1 1026.9 0.0
21/11:30am 15.6 11.9 4.6 48 5.3 E 13 17 7 9 1028.5 1027.4 0.0
21/11:00am 14.6 11.0 4.9 52 4.7 ENE 13 22 7 12 1028.8 1027.7 0.0
21/10:30am 13.8 8.9 4.1 52 4.6 NE 19 24 10 13 1028.9 1027.8 0.0
21/10:00am 14.3 10.3 4.9 53 4.5 NE 15 22 8 12 1028.9 1027.8 0.0
21/09:30am 13.5 9.7 5.7 59 3.8 NE 15 22 8 12 1029.1 1027.9 0.0
21/09:00am 11.6 6.7 4.1 60 3.5 E 19 26 10 14 1029.1 1027.9 0.0
21/08:30am 12.3 7.9 5.0 61 3.5 E 17 22 9 12 1028.6 1027.5 0.0
21/08:00am 11.4 7.0 4.8 64 3.1 E 17 22 9 12 1028.4 1027.3 0.0
21/07:30am 10.5 6.8 4.6 67 2.8 E 13 22 7 12 1028.3 1027.2 0.0
21/07:00am 8.9 6.4 4.9 76 1.8 E 7 15 4 8 1028.0 1026.8 0.0
21/06:30am 7.3 4.3 3.9 79 1.5 SE 9 17 5 9 1027.6 1026.4 0.0
21/06:00am 6.1 2.2 3.4 83 1.2 E 13 13 7 7 1027.0 1025.9 0.0
21/05:30am 6.9 3.0 3.3 78 1.6 E 13 17 7 9 1026.7 1025.5 0.0
21/05:00am 7.8 3.3 4.2 78 1.6 E 17 24 9 13 1026.2 1025.0 0.0
21/04:30am 7.1 4.1 3.9 80 1.4 SSE 9 17 5 9 1026.1 1024.9 0.0
21/04:00am 5.8 2.6 3.3 84 1.1 S 9 15 5 8 1025.8 1024.6 0.0
21/03:30am 5.8 2.6 3.1 83 1.2 SSW 9 13 5 7 1025.5 1024.4 0.0
21/03:00am 5.6 1.3 1.0 72 1.9 SSE 13 17 7 9 1025.3 1024.1 0.0
21/02:30am 6.3 2.0 1.0 69 2.2 SE 13 17 7 9 1025.4 1024.2 0.0
21/02:00am 6.7 2.2 -0.1 62 2.7 SSE 13 17 7 9 1025.8 1024.6 0.0
21/01:30am 6.8 2.1 -1.8 54 3.3 SSE 13 15 7 8 1026.2 1025.0 0.0
21/01:00am 8.7 4.2 -0.6 52 3.8 ESE 13 15 7 8 1026.1 1024.9 0.0
21/12:30am 9.9 5.4 0.0 50 4.1 E 13 15 7 8 1025.9 1024.7 0.0
21/12:00am 10.1 5.6 -0.1 49 4.2 E 13 17 7 9 1025.8 1024.6 0.0
 
Date/Time
EST
Temp
°C
App
Temp
°C
Dew
Point
Rel
Hum
%
Delta-T
°C
Wind Press
QNH
hPa
Press
MSL
hPa
Rain
since 9 am
mm
Dir
 
Spd
km/h
Gust
km/h
Spd
kts
Gust
kts
20/11:30pm 9.7 5.1 -0.8 48 4.3 ENE 13 19 7 10 1025.5 1024.4 0.0
20/11:00pm 10.5 6.2 -1.5 43 4.8 E 11 13 6 7 1025.4 1024.2 0.0
20/10:30pm 10.6 6.3 -1.4 43 4.9 E 11 13 6 7 1025.2 1024.0 0.0
20/10:00pm 11.5 7.5 -2.3 38 5.5 E 9 13 5 7 1024.8 1023.6 0.0
20/09:30pm 12.1 7.3 -2.5 36 5.9 E 13 20 7 11 1024.8 1023.6 0.0
20/09:00pm 12.3 8.1 -3.9 32 6.3 E 9 13 5 7 1024.9 1023.7 0.0
20/08:30pm 12.2 8.0 -3.6 33 6.2 SE 9 13 5 7 1024.8 1023.6 0.0
20/08:00pm 11.8 6.5 -3.5 34 6.0 SE 15 19 8 10 1024.6 1023.4 0.0
20/07:30pm 13.3 8.3 -4.3 29 6.9 S 13 17 7 9 1024.2 1023.0 0.0
20/07:00pm 13.7 8.9 -5.9 25 7.4 S 11 15 6 8 1023.8 1022.6 0.0
20/06:30pm 14.0 9.6 -6.2 24 7.7 S 9 13 5 7 1023.3 1022.1 0.0
20/06:00pm 14.3 9.5 -6.0 24 7.7 S 11 13 6 7 1023.1 1021.9 0.0
20/05:30pm 16.1 11.3 -5.6 22 8.5 S 11 13 6 7 1022.7 1021.4 0.0
20/05:00pm 17.6 12.3 -7.0 18 9.5 S 13 19 7 10 1022.5 1021.2 0.0
20/04:30pm 18.2 12.3 -5.8 19 9.6 S 17 22 9 12 1022.0 1020.8 0.0
20/04:00pm 18.6 13.2 -4.8 20 9.6 SSE 15 24 8 13 1021.8 1020.6 0.0
20/03:30pm 18.5 12.7 -4.9 20 9.6 SE 17 26 9 14 1021.4 1020.1 0.0
20/03:00pm 18.3 11.9 -5.0 20 9.5 SE 20 26 11 14 1021.5 1020.3 0.0
20/02:30pm 18.5 13.9 -4.2 21 9.4 SE 11 19 6 10 1021.6 1020.4 0.0
20/02:00pm 18.2 13.8 -2.7 24 8.9 S 11 19 6 10 1021.7 1020.5 0.0
20/01:30pm 17.8 13.4 -5.4 20 9.3 SW 9 17 5 9 1022.0 1020.8 0.0
20/01:00pm 17.8 13.1 -4.8 21 9.2 SSE 11 19 6 10 1022.3 1021.1 0.0
20/12:30pm 17.2 13.0 -3.5 24 8.6 S 9 17 5 9 1022.7 1021.4 0.0
20/12:00pm 17.0 12.5 -6.8 19 9.2 SE 9 19 5 10 1022.9 1021.7 0.0
20/11:30am 16.4 12.5 -4.2 24 8.4 NNE 7 15 4 8 1023.2 1022.0 0.0
20/11:00am 15.9 11.9 -2.1 29 7.6 SSE 9 19 5 10 1023.5 1022.3 0.0
20/10:30am 15.2 11.4 -0.5 34 6.8 SSE 9 15 5 8 1023.8 1022.6 0.0
20/10:00am 14.4 10.0 0.3 38 6.2 S 13 19 7 10 1024.3 1023.1 0.0
20/09:30am 13.5 9.8 -0.2 39 5.9 SSE 9 13 5 7 1024.5 1023.3 0.0
20/09:00am 12.5 8.9 0.9 45 5.0 SSE 9 17 5 9 1024.4 1023.2 0.0
20/08:30am 11.2 7.7 1.2 50 4.3 S 9 17 5 9 1024.3 1023.1 0.0
20/08:00am 10.0 6.1 0.9 53 3.9 S 11 13 6 7 1023.9 1022.7 0.0
20/07:30am 9.1 5.5 0.8 56 3.5 SSW 9 15 5 8 1023.5 1022.3 0.0
20/07:00am 7.9 4.4 1.3 63 2.8 S 9 13 5 7 1023.0 1021.8 0.0
20/06:30am 6.2 1.9 0.7 68 2.3 SSW 13 15 7 8 1022.6 1021.3 0.0
20/06:00am 6.0 1.6 0.1 66 2.4 SSW 13 15 7 8 1022.1 1020.9 0.0
20/05:30am 6.1 1.6 -0.2 64 2.5 SSW 13 15 7 8 1021.7 1020.5 0.0
20/05:00am 6.1 1.6 -0.2 64 2.5 SSW 13 15 7 8 1021.4 1020.1 0.0
20/04:30am 5.7 1.3 0.3 68 2.2 SSW 13 15 7 8 1021.1 1019.8 0.0
20/04:00am 5.7 1.3 0.3 68 2.2 SSW 13 15 7 8 1020.8 1019.5 0.0
20/03:30am 6.6 2.3 0.7 66 2.4 SSW 13 15 7 8 1020.9 1019.6 0.0
20/03:00am 6.3 2.0 0.8 68 2.3 SSW 13 17 7 9 1020.9 1019.6 0.0
20/02:30am 6.4 2.1 1.1 69 2.2 SSW 13 15 7 8 1021.1 1019.8 0.0
20/02:00am 6.4 1.7 1.1 69 2.2 S 15 19 8 10 1021.2 1019.9 0.0
20/01:30am 6.6 1.9 0.7 66 2.4 S 15 17 8 9 1021.6 1020.4 0.0
20/01:00am 6.9 2.2 0.6 64 2.6 SSW 15 17 8 9 1021.7 1020.5 0.0
20/12:30am 7.3 2.5 0.5 62 2.8 SSW 15 19 8 10 1022.0 1020.8 0.0
20/12:00am 7.7 2.5 0.4 60 3.0 S 17 20 9 11 1022.0 1020.8 0.0
 
Date/Time
EST
Temp
°C
App
Temp
°C
Dew
Point
Rel
Hum
%
Delta-T
°C
Wind Press
QNH
hPa
Press
MSL
hPa
Rain
since 9 am
mm
Dir
 
Spd
km/h
Gust
km/h
Spd
kts
Gust
kts
19/11:30pm 7.5 3.0 0.0 59 3.1 S 13 19 7 10 1022.1 1020.9 0.0
19/11:00pm 8.1 3.7 0.3 58 3.2 S 13 19 7 10 1022.1 1020.9 0.0
19/10:30pm 8.6 4.5 -0.2 54 3.6 SSW 11 17 6 9 1022.3 1021.1 0.0
19/10:00pm 9.3 4.1 0.2 53 3.8 SSW 17 28 9 15 1022.5 1021.2 0.0
19/09:30pm 9.8 4.1 0.7 53 3.9 SW 20 28 11 15 1022.3 1021.1 0.0
19/09:00pm 9.8 5.1 0.7 53 3.8 SW 15 17 8 9 1022.2 1021.0 0.0
19/08:30pm 9.9 5.1 0.5 52 4.0 SW 15 20 8 11 1022.2 1021.0 0.0
19/08:00pm 9.8 5.4 0.2 51 4.0 SW 13 15 7 8 1022.1 1020.9 0.0
19/07:30pm 10.6 5.8 0.1 48 4.4 SW 15 19 8 10 1021.8 1020.6 0.0
19/07:00pm 11.2 6.3 -0.3 45 4.8 SW 15 19 8 10 1021.5 1020.3 0.0
19/06:30pm 11.7 6.8 -0.8 42 5.2 SSW 15 19 8 10 1021.2 1019.9 0.0
19/06:00pm 12.3 6.9 -1.2 39 5.6 SW 17 28 9 15 1020.8 1019.5 0.0
19/05:30pm 12.8 7.9 -0.8 39 5.7 SW 15 24 8 13 1020.4 1019.2 0.0
19/05:00pm 13.4 8.4 -1.3 36 6.2 SW 15 20 8 11 1020.1 1018.9 0.0
19/04:30pm 14.2 8.7 -1.8 33 6.7 SW 17 26 9 14 1019.8 1018.5 0.0
19/04:00pm 14.1 9.0 -5.1 26 7.4 SW 13 20 7 11 1019.7 1018.4 0.0
19/03:30pm 14.3 8.6 -3.5 29 7.2 SSW 17 22 9 12 1019.5 1018.2 0.0
19/03:00pm 14.9 9.8 -2.1 31 7.1 S 15 19 8 10 1019.5 1018.2 0.0
19/02:30pm 15.8 11.5 0.8 36 6.7 S 13 22 7 12 1019.6 1018.3 0.0
19/02:00pm 15.0 10.1 -0.3 35 6.6 S 15 20 8 11 1019.7 1018.4 0.0
19/01:30pm 14.8 9.5 -0.9 34 6.7 S 17 28 9 15 1019.9 1018.6 0.0
19/01:00pm 15.0 11.4 0.8 38 6.3 S 9 19 5 10 1020.4 1019.2 0.0
19/12:30pm 13.9 10.6 0.2 39 6.0 NNW 7 13 4 7 1020.9 1019.6 0.0
19/12:00pm 14.0 10.8 1.0 41 5.8 SW 7 15 4 8 1021.3 1020.0 0.0
19/11:30am 12.7 9.3 -2.0 36 6.0 S 6 15 3 8 1021.7 1020.5 0.0
19/11:00am 12.4 8.7 -0.1 42 5.3 SW 9 15 5 8 1021.9 1020.7 0.0
19/10:30am 11.9 8.3 0.4 45 4.9 SE 9 17 5 9 1022.0 1020.8 0.0
19/10:00am 11.7 7.8 1.4 49 4.5 S 11 19 6 10 1022.2 1021.0 0.0
19/09:30am 10.8 6.6 1.9 54 3.9 SE 13 19 7 10 1022.5 1021.2 0.0
19/09:00am 10.0 4.5 0.3 51 4.1 SE 19 24 10 13 1022.6 1021.3 0.0
19/08:30am 9.5 5.7 1.9 59 3.3 SE 11 17 6 9 1022.9 1021.7 0.0
19/08:00am 8.0 3.3 1.2 62 2.9 S 15 20 8 11 1022.9 1021.7 0.0
19/07:30am 7.6 4.1 1.0 63 2.8 S 9 15 5 8 1022.6 1021.3 0.0
19/07:00am 5.7 1.3 0.5 69 2.1 S 13 15 7 8 1022.2 1021.0 0.0
19/06:30am 5.7 0.9 0.5 69 2.1 S 15 17 8 9 1022.0 1020.8 0.0
19/06:00am 5.6 1.2 0.2 68 2.2 S 13 17 7 9 1021.8 1020.6 0.0
19/05:30am 5.3 0.5 -0.1 68 2.1 S 15 17 8 9 1021.5 1020.3 0.0
19/05:00am 5.4 0.2 -0.2 67 2.2 SSW 17 19 9 10 1021.4 1020.1 0.0
19/04:30am 6.1 1.3 0.0 65 2.5 SSW 15 19 8 10 1021.3 1020.0 0.0
19/04:00am 5.8 0.9 -0.3 65 2.4 SSW 15 20 8 11 1021.0 1019.7 0.0
19/03:30am 5.5 0.6 -0.3 66 2.3 SSW 15 20 8 11 1021.0 1019.7 0.0
19/03:00am 4.8 0.2 -1.0 66 2.2 SSW 13 17 7 9 1021.1 1019.8 0.0
19/02:30am 5.3 0.3 -0.9 64 2.4 S 15 19 8 10 1021.3 1020.0 0.0
19/02:00am 5.8 0.1 -1.1 61 2.7 S 19 22 10 12 1021.5 1020.3 0.0
19/01:30am 5.9 0.9 -1.3 60 2.8 S 15 19 8 10 1021.8 1020.6 0.0
19/01:00am 5.6 1.3 -1.5 60 2.7 S 11 15 6 8 1021.9 1020.7 0.0
19/12:30am 6.3 0.9 -1.3 58 3.0 S 17 19 9 10 1022.0 1020.8 0.0
19/12:00am 6.2 0.8 -1.2 59 2.9 S 17 20 9 11 1022.1 1020.9 0.0
 
Date/Time
EST
Temp
°C
App
Temp
°C
Dew
Point
Rel
Hum
%
Delta-T
°C
Wind Press
QNH
hPa
Press
MSL
hPa
Rain
since 9 am
mm
Dir
 
Spd
km/h
Gust
km/h
Spd
kts
Gust
kts
18/11:30pm 6.4 1.4 -1.0 59 2.9 S 15 19 8 10 1022.5 1021.2 0.0
18/11:00pm 6.5 1.9 -1.4 57 3.1 S 13 17 7 9 1022.7 1021.4 0.0
18/10:30pm 6.7 2.8 -1.4 56 3.2 SSW 9 15 5 8 1022.7 1021.4 0.0
18/10:00pm 7.2 2.9 -1.5 54 3.4 S 11 15 6 8 1022.7 1021.4 0.0
18/09:30pm 8.2 3.5 -1.6 50 3.9 SSW 13 17 7 9 1022.7 1021.4 0.0
18/09:00pm 9.1 3.3 -1.6 47 4.3 SW 19 24 10 13 1022.5 1021.2 0.0
18/08:30pm 9.5 3.7 -1.8 45 4.5 SW 19 24 10 13 1022.2 1021.0 0.0
18/08:00pm 10.0 4.5 -2.0 43 4.8 SW 17 20 9 11 1022.0 1020.8 0.0

Other Formats:

Comma delimited format used in spreadsheet applications
http://www.bom.gov.au/fwo/IDN60801/IDN60801.95728.axf

JavaScript Object Notation format (JSON) in row-major order
http://www.bom.gov.au/fwo/IDN60801/IDN60801.95728.json